createdAt,value
2022-09-14T00:01:14.212Z,5.40
2022-09-14T00:06:16.132Z,5.85
2022-09-14T00:11:21.524Z,7.32
2022-09-14T00:16:25.927Z,4.85
2022-09-14T00:21:28.883Z,5.90
2022-09-14T00:26:32.338Z,6.55
2022-09-14T00:31:36.030Z,4.40
2022-09-14T00:36:41.009Z,5.18
2022-09-14T00:41:47.118Z,4.97
2022-09-14T00:46:52.365Z,6.53
2022-09-14T00:52:00.066Z,5.82
2022-09-14T00:57:04.434Z,5.00
2022-09-14T01:02:07.160Z,5.72
2022-09-14T01:07:19.756Z,6.72
2022-09-14T01:12:30.567Z,6.22
2022-09-14T01:17:42.656Z,7.47
2022-09-14T01:22:49.534Z,7.47
2022-09-14T01:27:53.615Z,7.35
2022-09-14T01:33:03.650Z,8.57
2022-09-14T01:38:09.683Z,6.75
2022-09-14T01:43:16.820Z,6.70
2022-09-14T01:48:24.789Z,6.50
2022-09-14T01:53:34.719Z,4.05
2022-09-14T01:58:44.684Z,6.05
2022-09-14T02:03:52.827Z,6.28
2022-09-14T02:08:56.951Z,5.45
2022-09-14T02:14:00.787Z,5.72
2022-09-14T02:19:03.023Z,5.95
2022-09-14T02:24:05.833Z,6.50
2022-09-14T02:29:09.292Z,6.07
2022-09-14T02:34:18.649Z,4.78
2022-09-14T02:39:28.107Z,4.93
2022-09-14T02:44:40.169Z,5.63
2022-09-14T02:49:50.350Z,6.00
2022-09-14T02:54:59.700Z,8.00
2022-09-14T03:00:03.448Z,6.82
2022-09-14T03:05:06.169Z,5.30
2022-09-14T03:10:08.969Z,5.93
2022-09-14T03:15:12.694Z,4.60
2022-09-14T03:20:15.448Z,5.97
2022-09-14T03:25:19.047Z,6.43
2022-09-14T03:30:23.014Z,5.07
2022-09-14T03:35:27.170Z,5.95
2022-09-14T03:40:29.451Z,4.68
2022-09-14T03:45:34.158Z,4.38
2022-09-14T03:50:36.146Z,4.93
2022-09-14T03:55:40.762Z,4.15
2022-09-14T04:00:44.170Z,5.03
2022-09-14T04:05:56.203Z,4.63
2022-09-14T04:10:58.208Z,5.75
2022-09-14T04:16:02.448Z,4.70
2022-09-14T04:21:10.012Z,7.60
2022-09-14T04:26:16.579Z,3.95
2022-09-14T04:31:23.478Z,4.75
2022-09-14T04:36:32.725Z,4.55
2022-09-14T04:41:38.551Z,4.47
2022-09-14T04:46:46.460Z,6.13
2022-09-14T04:51:50.181Z,7.57
2022-09-14T04:56:55.128Z,6.60
2022-09-14T05:02:03.750Z,7.20
2022-09-14T05:07:07.060Z,7.72
2022-09-14T05:12:10.494Z,7.70
2022-09-14T05:17:17.385Z,7.53
2022-09-14T05:22:22.818Z,7.72
2022-09-14T05:27:28.395Z,8.15
2022-09-14T05:32:34.379Z,10.45
2022-09-14T05:37:42.545Z,6.68
2022-09-14T05:42:44.955Z,6.13
2022-09-14T05:47:48.450Z,6.40
2022-09-14T05:52:51.639Z,5.50
2022-09-14T05:57:53.966Z,6.82
2022-09-14T06:02:57.361Z,9.85
2022-09-14T06:07:59.364Z,6.80
2022-09-14T06:13:01.562Z,6.65
2022-09-14T06:18:05.084Z,8.90
2022-09-14T06:23:07.136Z,4.93
2022-09-14T06:28:09.169Z,6.20
2022-09-14T06:33:12.597Z,7.18
2022-09-14T06:38:15.050Z,8.80
2022-09-14T06:43:17.112Z,9.48
2022-09-14T06:48:20.621Z,8.20
2022-09-14T06:53:22.678Z,8.05
2022-09-14T06:58:24.750Z,7.95
2022-09-14T07:03:28.644Z,11.45
2022-09-14T07:08:30.885Z,9.15
2022-09-14T07:13:33.959Z,9.35
2022-09-14T07:18:37.824Z,8.48
2022-09-14T07:23:41.934Z,12.48
2022-09-14T07:28:45.407Z,10.60
2022-09-14T07:33:49.566Z,10.02
2022-09-14T07:38:53.200Z,10.93
2022-09-14T07:43:57.267Z,10.38
2022-09-14T07:49:02.536Z,9.93
2022-09-14T07:54:09.756Z,9.63
2022-09-14T08:04:37.724Z,9.05
2022-09-14T08:09:40.120Z,12.32
2022-09-14T08:14:42.135Z,9.60
2022-09-14T08:19:45.934Z,10.68
2022-09-14T08:24:48.007Z,11.93
2022-09-14T08:29:50.081Z,18.23
2022-09-14T08:34:53.500Z,13.13
2022-09-14T08:39:55.581Z,16.40
2022-09-14T08:45:00.401Z,17.17
2022-09-14T08:50:07.743Z,13.25
2022-09-14T08:55:22.088Z,15.32
2022-09-14T09:00:27.546Z,16.17
2022-09-14T09:05:37.845Z,15.63
2022-09-14T09:10:41.693Z,16.10
2022-09-14T09:15:49.307Z,14.73
2022-09-14T09:21:00.579Z,12.55
2022-09-14T09:26:07.130Z,9.45
2022-09-14T09:31:14.868Z,13.18
2022-09-14T09:36:18.917Z,11.85
2022-09-14T09:41:23.938Z,11.98
2022-09-14T09:46:26.407Z,10.35
2022-09-14T09:51:32.003Z,9.80
2022-09-14T09:56:37.357Z,11.32
2022-09-14T10:01:39.510Z,10.13
2022-09-14T10:06:48.026Z,10.88
2022-09-14T10:11:58.559Z,11.63
2022-09-14T10:17:18.778Z,12.43
2022-09-14T10:22:29.246Z,12.80
2022-09-14T10:27:40.880Z,14.95
2022-09-14T10:32:46.590Z,12.10
2022-09-14T10:38:02.357Z,13.98
2022-09-14T10:43:17.266Z,16.48
2022-09-14T10:48:52.320Z,17.13
2022-09-14T10:54:01.754Z,15.07
2022-09-14T10:59:23.754Z,12.38
2022-09-14T11:04:47.435Z,16.15
2022-09-14T11:09:58.199Z,13.45
2022-09-14T11:15:08.325Z,14.80
2022-09-14T11:20:21.192Z,16.90
2022-09-14T11:25:31.004Z,15.93
2022-09-14T11:30:41.516Z,12.60
2022-09-14T11:35:46.843Z,13.00
2022-09-14T11:40:55.191Z,12.43
2022-09-14T11:46:03.024Z,13.20
2022-09-14T11:51:13.234Z,13.98
2022-09-14T11:56:26.902Z,13.65
2022-09-14T12:01:33.394Z,13.82
2022-09-14T12:07:02.563Z,13.27
2022-09-14T12:12:08.429Z,12.70
2022-09-14T12:22:46.957Z,8.85
2022-09-14T12:27:53.533Z,7.65
2022-09-14T12:32:55.635Z,10.73
2022-09-14T12:37:57.712Z,9.57
2022-09-14T12:43:48.812Z,8.60
2022-09-14T12:49:03.413Z,7.28
2022-09-14T12:54:18.905Z,5.18
2022-09-14T12:59:27.849Z,8.38
2022-09-14T13:04:33.228Z,5.80
2022-09-14T13:09:35.816Z,8.48
2022-09-14T13:14:47.630Z,8.43
2022-09-14T13:19:56.848Z,6.90
2022-09-14T13:25:00.401Z,7.38
2022-09-14T13:30:06.623Z,7.53
2022-09-14T13:35:18.347Z,8.13
2022-09-14T13:40:24.232Z,8.60
2022-09-14T13:45:28.112Z,6.22
2022-09-14T13:50:30.342Z,9.95
2022-09-14T13:55:44.936Z,11.98
2022-09-14T14:00:55.347Z,8.07
2022-09-14T14:05:58.336Z,8.18
2022-09-14T14:11:02.064Z,7.25
2022-09-14T14:16:22.723Z,7.57
2022-09-14T14:21:33.200Z,6.15
2022-09-14T14:26:35.359Z,7.47
2022-09-14T14:31:38.944Z,11.95
2022-09-14T14:36:41.112Z,9.60
2022-09-14T14:41:43.358Z,7.82
2022-09-14T14:46:47.087Z,7.88
2022-09-14T14:51:50.379Z,10.15
2022-09-14T14:56:52.965Z,9.75
2022-09-14T15:01:57.455Z,7.15
2022-09-14T15:06:59.543Z,8.60
2022-09-14T15:12:01.861Z,8.80
2022-09-14T15:17:05.305Z,11.15
2022-09-14T15:22:07.495Z,10.23
2022-09-14T15:27:09.815Z,6.53
2022-09-14T15:32:13.422Z,9.02
2022-09-14T15:37:15.563Z,7.05
2022-09-14T15:42:18.152Z,8.27
2022-09-14T15:47:21.586Z,7.57
2022-09-14T15:52:23.702Z,7.55
2022-09-14T15:57:25.790Z,8.25
2022-09-14T16:02:29.678Z,8.43
2022-09-14T16:07:31.773Z,10.02
2022-09-14T16:12:34.085Z,7.75
2022-09-14T16:17:37.516Z,8.70
2022-09-14T16:22:39.738Z,9.48
2022-09-14T16:27:42.476Z,5.20
2022-09-14T16:32:45.933Z,5.22
2022-09-14T16:37:48.018Z,9.40
2022-09-14T16:42:52.197Z,5.88
2022-09-14T16:47:55.776Z,12.15
2022-09-14T16:52:57.848Z,8.40
2022-09-14T16:57:59.946Z,7.07
2022-09-14T17:03:03.480Z,6.40
2022-09-14T17:08:05.781Z,7.32
2022-09-14T17:13:08.131Z,8.63
2022-09-14T17:18:11.595Z,7.90
2022-09-14T17:23:13.848Z,6.47
2022-09-14T17:28:15.957Z,10.80
2022-09-14T17:33:19.412Z,5.80
2022-09-14T17:38:22.847Z,9.05
2022-09-14T17:43:24.965Z,5.97
2022-09-14T17:48:29.300Z,6.00
2022-09-14T17:53:31.615Z,13.32
2022-09-14T17:58:34.141Z,5.10
2022-09-14T18:03:38.596Z,5.50
2022-09-14T18:08:41.597Z,8.30
2022-09-14T18:13:44.357Z,7.05
2022-09-14T18:18:48.958Z,7.68
2022-09-14T18:23:52.169Z,6.43
2022-09-14T18:28:56.213Z,4.88
2022-09-14T18:34:01.145Z,6.28
2022-09-14T18:39:03.751Z,8.82
2022-09-14T18:44:06.512Z,7.75
2022-09-14T18:49:10.793Z,10.32
2022-09-14T18:54:15.225Z,6.30
2022-09-14T18:59:17.682Z,8.50
2022-09-14T19:04:21.979Z,4.82
2022-09-14T19:09:24.577Z,5.88
2022-09-14T19:14:27.336Z,6.60
2022-09-14T19:19:31.422Z,7.22
2022-09-14T19:24:34.151Z,12.45
2022-09-14T19:29:36.660Z,12.15
2022-09-14T19:34:40.520Z,8.15
2022-09-14T19:39:44.035Z,18.15
2022-09-14T19:44:46.475Z,26.73
2022-09-14T19:49:50.316Z,15.02
2022-09-14T19:54:55.885Z,12.88
2022-09-14T19:59:58.382Z,18.85
2022-09-14T20:05:02.174Z,17.85
2022-09-14T20:10:05.045Z,9.73
2022-09-14T20:15:08.506Z,10.98
2022-09-14T20:20:13.057Z,6.35
2022-09-14T20:25:16.587Z,5.28
2022-09-14T20:30:19.002Z,4.10
2022-09-14T20:35:22.480Z,3.47
2022-09-14T20:40:26.264Z,6.90
2022-09-14T20:45:30.436Z,6.95
2022-09-14T20:50:34.045Z,7.88
2022-09-14T20:55:36.350Z,8.32
2022-09-14T21:00:39.179Z,10.40
2022-09-14T21:05:42.905Z,10.15
2022-09-14T21:10:45.163Z,8.32
2022-09-14T21:15:49.879Z,9.57
2022-09-14T21:20:53.493Z,6.68
2022-09-14T21:25:58.308Z,7.15
2022-09-14T21:31:15.215Z,5.93
2022-09-14T21:36:25.510Z,5.25
2022-09-14T21:41:32.649Z,5.10
2022-09-14T21:46:41.667Z,4.20
2022-09-14T21:51:48.891Z,5.85
2022-09-14T21:56:54.520Z,5.13
2022-09-14T22:02:01.377Z,3.38
2022-09-14T22:07:12.043Z,2.58
2022-09-14T22:12:17.318Z,3.00
2022-09-14T22:17:22.076Z,4.97
2022-09-14T22:22:27.418Z,3.25
2022-09-14T22:27:34.929Z,2.53
2022-09-14T22:32:42.970Z,3.55
2022-09-14T22:37:56.045Z,4.90
2022-09-14T22:43:04.135Z,2.53
2022-09-14T22:48:06.612Z,2.90
2022-09-14T22:53:25.007Z,2.80
2022-09-14T22:58:35.351Z,5.50
2022-09-14T23:03:45.144Z,3.28
2022-09-14T23:09:15.648Z,4.30
2022-09-14T23:14:43.432Z,3.78
2022-09-14T23:25:21.971Z,3.38
2022-09-14T23:30:39.311Z,2.35
2022-09-14T23:42:21.886Z,5.88
2022-09-14T23:47:57.137Z,4.00
2022-09-14T23:53:16.736Z,5.00
